createdAt,value
2023-03-28T00:02:12.721Z,61.30
2023-03-28T00:05:18.854Z,61.32
2023-03-28T00:08:25.683Z,61.42
2023-03-28T00:11:35.213Z,61.48
2023-03-28T00:14:43.955Z,61.53
2023-03-28T00:17:49.960Z,61.66
2023-03-28T00:20:56.971Z,61.74
2023-03-28T00:24:07.913Z,61.81
2023-03-28T00:27:14.334Z,61.88
2023-03-28T00:30:20.973Z,61.94
2023-03-28T00:33:28.088Z,61.98
2023-03-28T00:36:36.592Z,62.10
2023-03-28T00:39:43.577Z,62.12
2023-03-28T00:42:50.497Z,62.22
2023-03-28T00:46:08.620Z,62.23
2023-03-28T00:49:09.040Z,62.28
2023-03-28T00:52:17.052Z,62.38
2023-03-28T00:55:26.439Z,62.44
2023-03-28T00:58:36.120Z,62.50
2023-03-28T01:01:41.475Z,62.65
2023-03-28T01:04:56.136Z,62.73
2023-03-28T01:08:06.369Z,62.86
2023-03-28T01:11:13.640Z,62.95
2023-03-28T01:14:20.557Z,63.06
2023-03-28T01:17:27.923Z,63.09
2023-03-28T01:20:57.941Z,63.24
2023-03-28T01:24:34.130Z,63.32
2023-03-28T01:27:47.631Z,63.31
2023-03-28T01:31:28.312Z,63.37
2023-03-28T01:35:08.737Z,63.45
2023-03-28T01:38:25.723Z,63.52
2023-03-28T01:41:45.129Z,63.63
2023-03-28T01:45:11.281Z,63.74
2023-03-28T01:48:33.518Z,63.80
2023-03-28T01:51:59.641Z,63.89
2023-03-28T01:55:13.699Z,64.03
2023-03-28T01:58:24.229Z,64.13
2023-03-28T02:01:40.614Z,64.20
2023-03-28T02:04:46.828Z,64.30
2023-03-28T02:07:55.885Z,64.40
2023-03-28T02:11:05.736Z,64.49
2023-03-28T02:14:24.448Z,64.52
2023-03-28T02:17:34.186Z,64.54
2023-03-28T02:20:45.956Z,64.60
2023-03-28T02:24:09.663Z,64.64
2023-03-28T02:27:23.258Z,64.69
2023-03-28T02:30:31.292Z,64.69
2023-03-28T02:33:50.358Z,64.79
2023-03-28T02:37:24.735Z,64.84
2023-03-28T02:41:03.871Z,64.91
2023-03-28T02:45:01.761Z,64.89
2023-03-28T02:48:32.680Z,64.92
2023-03-28T02:51:52.193Z,65.05
2023-03-28T02:55:10.907Z,65.18
2023-03-28T02:58:45.323Z,65.15
2023-03-28T03:01:51.669Z,65.14
2023-03-28T03:05:01.276Z,65.22
2023-03-28T03:08:07.768Z,65.28
2023-03-28T03:11:14.847Z,65.36
2023-03-28T03:14:21.614Z,65.30
2023-03-28T03:17:34.207Z,65.23
2023-03-28T03:20:43.145Z,65.25
2023-03-28T03:23:50.962Z,65.42
2023-03-28T03:26:58.166Z,65.47
2023-03-28T03:30:04.378Z,65.43
2023-03-28T03:33:31.949Z,65.46
2023-03-28T03:36:38.433Z,65.55
2023-03-28T03:39:38.739Z,65.63
2023-03-28T03:42:31.782Z,65.76
2023-03-28T03:45:38.871Z,65.77
2023-03-28T03:48:49.256Z,65.80
2023-03-28T03:51:53.055Z,65.84
2023-03-28T03:54:59.077Z,65.89
2023-03-28T03:58:07.200Z,65.90
2023-03-28T04:01:16.799Z,65.94
2023-03-28T04:04:23.321Z,65.92
2023-03-28T04:07:33.404Z,66.05
2023-03-28T04:10:41.525Z,66.13
2023-03-28T04:13:47.216Z,66.16
2023-03-28T04:16:57.092Z,66.03
2023-03-28T04:20:04.837Z,66.16
2023-03-28T04:23:14.869Z,66.17
2023-03-28T04:26:23.455Z,66.23
2023-03-28T04:29:35.748Z,66.33
2023-03-28T04:32:45.049Z,66.46
2023-03-28T04:35:53.468Z,66.48
2023-03-28T04:38:59.856Z,66.50
2023-03-28T04:42:26.051Z,66.46
2023-03-28T04:45:39.805Z,66.40
2023-03-28T04:48:49.022Z,66.46
2023-03-28T04:51:59.580Z,66.53
2023-03-28T04:55:07.990Z,66.57
2023-03-28T04:58:15.818Z,66.61
2023-03-28T05:01:23.509Z,66.65
2023-03-28T05:04:33.300Z,66.60
2023-03-28T05:07:39.280Z,66.53
2023-03-28T05:10:44.342Z,66.66
2023-03-28T05:13:58.536Z,66.65
2023-03-28T05:17:06.930Z,66.65
2023-03-28T05:20:23.781Z,66.71
2023-03-28T05:23:28.749Z,66.61
2023-03-28T05:26:35.629Z,66.55
2023-03-28T05:29:42.844Z,66.62
2023-03-28T05:32:49.519Z,66.54
2023-03-28T05:35:55.436Z,66.58
2023-03-28T05:39:04.260Z,66.71
2023-03-28T05:42:11.475Z,66.79
2023-03-28T05:45:20.551Z,66.76
2023-03-28T05:48:39.766Z,66.89
2023-03-28T05:51:44.738Z,66.97
2023-03-28T05:54:51.643Z,66.98
2023-03-28T05:57:51.771Z,66.93
2023-03-28T06:01:00.059Z,66.92
2023-03-28T06:04:07.318Z,66.94
2023-03-28T06:07:14.690Z,66.98
2023-03-28T06:10:22.773Z,67.02
2023-03-28T06:13:33.711Z,66.88
2023-03-28T06:16:38.809Z,66.83
2023-03-28T06:19:44.748Z,66.86
2023-03-28T06:22:50.111Z,66.98
2023-03-28T06:25:50.477Z,66.91
2023-03-28T06:28:37.768Z,66.93
2023-03-28T06:31:36.178Z,66.81
2023-03-28T06:34:31.604Z,66.70
2023-03-28T06:37:38.157Z,66.76
2023-03-28T06:40:47.034Z,66.86
2023-03-28T06:43:53.613Z,66.91
2023-03-28T06:47:17.065Z,67.03
2023-03-28T06:50:23.109Z,67.06
2023-03-28T06:53:33.537Z,67.04
2023-03-28T06:56:40.816Z,67.01
2023-03-28T06:59:45.716Z,66.89
2023-03-28T07:02:55.006Z,66.85
2023-03-28T07:06:01.531Z,66.73
2023-03-28T07:09:06.956Z,66.82
2023-03-28T07:12:16.812Z,66.76
2023-03-28T07:15:24.394Z,66.83
2023-03-28T07:18:29.910Z,66.89
2023-03-28T07:21:36.214Z,66.77
2023-03-28T07:24:41.084Z,66.82
2023-03-28T07:27:48.060Z,66.83
2023-03-28T07:30:54.182Z,66.76
2023-03-28T07:34:00.839Z,66.67
2023-03-28T07:37:07.399Z,66.63
2023-03-28T07:40:19.626Z,66.65
2023-03-28T07:43:25.028Z,66.71
2023-03-28T07:46:32.862Z,66.65
2023-03-28T07:49:39.116Z,66.43
2023-03-28T07:52:47.965Z,66.38
2023-03-28T07:55:56.271Z,66.41
2023-03-28T07:59:04.195Z,66.48
2023-03-28T08:02:10.995Z,66.28
2023-03-28T08:05:17.665Z,66.12
2023-03-28T08:08:25.005Z,66.03
2023-03-28T08:11:44.133Z,65.99
2023-03-28T08:14:49.942Z,65.95
2023-03-28T08:17:56.136Z,65.93
2023-03-28T08:21:04.045Z,65.94
2023-03-28T08:24:10.474Z,65.78
2023-03-28T08:27:21.860Z,65.79
2023-03-28T08:30:29.300Z,65.91
2023-03-28T08:33:37.316Z,65.95
2023-03-28T08:36:45.131Z,65.81
2023-03-28T08:39:54.546Z,65.67
2023-03-28T08:43:27.213Z,65.37
2023-03-28T08:46:36.596Z,65.21
2023-03-28T08:49:43.615Z,65.00
2023-03-28T08:52:50.136Z,64.83
2023-03-28T08:56:04.317Z,64.64
2023-03-28T08:59:23.492Z,64.65
2023-03-28T09:02:36.280Z,64.75
2023-03-28T09:06:08.566Z,64.81
2023-03-28T09:09:34.278Z,65.00
2023-03-28T09:12:56.232Z,64.97
2023-03-28T09:16:37.758Z,65.00
2023-03-28T09:20:23.242Z,65.00
2023-03-28T09:23:56.956Z,64.96
2023-03-28T09:27:32.858Z,64.93
2023-03-28T09:30:46.956Z,64.82
2023-03-28T09:33:56.113Z,64.94
2023-03-28T09:37:15.994Z,65.02
2023-03-28T09:40:42.524Z,65.06
2023-03-28T09:44:01.961Z,65.06
2023-03-28T09:47:27.839Z,65.06
2023-03-28T09:50:35.655Z,65.02
2023-03-28T09:53:51.180Z,64.97
2023-03-28T09:56:59.700Z,64.97
2023-03-28T10:00:22.266Z,64.98
2023-03-28T10:03:41.415Z,65.08
2023-03-28T10:06:48.516Z,65.26
2023-03-28T10:10:10.874Z,65.31
2023-03-28T10:13:19.436Z,65.21
2023-03-28T10:16:30.068Z,65.13
2023-03-28T10:19:52.506Z,65.28
2023-03-28T10:23:04.574Z,65.19
2023-03-28T10:26:09.893Z,65.35
2023-03-28T10:29:17.806Z,65.37
2023-03-28T10:32:29.040Z,65.33
2023-03-28T10:35:43.392Z,65.44
2023-03-28T10:39:01.151Z,65.61
2023-03-28T10:42:14.047Z,65.70
2023-03-28T10:45:24.076Z,65.84
2023-03-28T10:48:36.152Z,66.00
2023-03-28T10:51:41.838Z,65.95
2023-03-28T10:54:52.492Z,66.05
2023-03-28T10:58:34.610Z,66.13
2023-03-28T11:02:04.071Z,66.28
2023-03-28T11:05:38.756Z,66.29
2023-03-28T11:09:04.975Z,66.29
2023-03-28T11:12:54.227Z,66.43
2023-03-28T11:16:14.875Z,66.55
2023-03-28T11:20:09.133Z,66.70
2023-03-28T11:23:48.086Z,66.77
2023-03-28T11:27:25.507Z,66.89
2023-03-28T11:30:47.428Z,67.05
2023-03-28T11:34:25.535Z,67.06
2023-03-28T11:37:40.969Z,67.15
2023-03-28T11:41:14.882Z,67.20
2023-03-28T11:44:43.338Z,67.13
2023-03-28T11:48:01.760Z,67.25
2023-03-28T11:51:29.209Z,67.36
2023-03-28T11:54:43.041Z,67.41
2023-03-28T11:58:12.474Z,67.52
2023-03-28T12:01:28.778Z,67.55
2023-03-28T12:05:01.266Z,67.64
2023-03-28T12:08:31.932Z,67.78
2023-03-28T12:11:48.667Z,67.87
2023-03-28T12:15:18.007Z,67.97
2023-03-28T12:19:00.264Z,68.02
2023-03-28T12:22:20.923Z,68.16
2023-03-28T12:25:51.166Z,68.24
2023-03-28T12:29:02.078Z,68.29
2023-03-28T12:32:15.833Z,68.33
2023-03-28T12:35:38.475Z,68.39
2023-03-28T12:38:55.840Z,68.49
2023-03-28T12:42:03.640Z,68.61
2023-03-28T12:45:22.623Z,68.64
2023-03-28T12:48:33.576Z,68.67
2023-03-28T12:51:54.602Z,68.78
2023-03-28T12:55:15.815Z,68.77
2023-03-28T12:58:43.178Z,68.87
2023-03-28T13:02:04.451Z,68.85
2023-03-28T13:05:41.082Z,68.89
2023-03-28T13:09:24.741Z,68.87
2023-03-28T13:13:11.312Z,68.91
2023-03-28T13:16:21.482Z,69.01
2023-03-28T13:19:29.068Z,69.12
2023-03-28T13:22:47.344Z,69.25
2023-03-28T13:25:54.926Z,69.32
2023-03-28T13:29:03.764Z,69.40
2023-03-28T13:32:10.077Z,69.41
2023-03-28T13:35:20.602Z,69.53
2023-03-28T13:38:51.173Z,69.61
2023-03-28T13:42:05.944Z,69.73
2023-03-28T13:45:29.871Z,69.87
2023-03-28T13:48:52.572Z,69.98
2023-03-28T13:52:06.632Z,70.16
2023-03-28T13:55:24.316Z,70.35
2023-03-28T13:58:30.897Z,70.43
2023-03-28T14:01:40.696Z,70.54
2023-03-28T14:04:48.537Z,70.67
2023-03-28T14:07:56.129Z,70.69
2023-03-28T14:11:04.450Z,70.75
2023-03-28T14:14:54.270Z,70.82
2023-03-28T14:18:01.214Z,70.87
2023-03-28T14:21:12.308Z,70.95
2023-03-28T14:24:20.787Z,71.09
2023-03-28T14:27:30.976Z,71.15
2023-03-28T14:30:43.122Z,71.20
2023-03-28T14:33:52.070Z,71.26
2023-03-28T14:37:22.044Z,71.33
2023-03-28T14:40:41.659Z,71.34
2023-03-28T14:43:47.354Z,71.38
2023-03-28T14:46:55.061Z,71.47
2023-03-28T14:50:01.053Z,71.55
2023-03-28T14:53:07.810Z,71.57
2023-03-28T14:56:18.098Z,71.61
2023-03-28T14:59:27.679Z,71.64
2023-03-28T15:02:49.000Z,71.68
2023-03-28T15:05:56.769Z,71.78
2023-03-28T15:09:03.752Z,71.84
2023-03-28T15:12:11.210Z,71.91
2023-03-28T15:15:17.433Z,71.99
2023-03-28T15:18:31.381Z,72.13
2023-03-28T15:21:36.202Z,72.19
2023-03-28T15:24:42.631Z,72.30
2023-03-28T15:27:48.875Z,72.39
2023-03-28T15:31:00.106Z,72.46
2023-03-28T15:34:06.861Z,72.54
2023-03-28T15:37:17.061Z,72.57
2023-03-28T15:40:40.303Z,72.64
2023-03-28T15:44:10.494Z,72.71
2023-03-28T15:47:26.773Z,72.75
2023-03-28T15:50:42.052Z,72.82
2023-03-28T15:53:48.185Z,72.92
2023-03-28T15:57:01.155Z,73.01
2023-03-28T16:00:07.672Z,73.11
2023-03-28T16:03:41.702Z,73.25
2023-03-28T16:06:49.136Z,73.30
2023-03-28T16:09:58.016Z,73.36
2023-03-28T16:13:06.291Z,73.46
2023-03-28T16:16:13.585Z,73.52
2023-03-28T16:19:38.511Z,73.56
2023-03-28T16:22:45.542Z,73.62
2023-03-28T16:25:52.258Z,73.69
2023-03-28T16:28:58.530Z,73.70
2023-03-28T16:32:05.333Z,73.74
2023-03-28T16:35:11.773Z,73.76
2023-03-28T16:38:19.101Z,73.74
2023-03-28T16:41:26.798Z,73.72
2023-03-28T16:44:33.140Z,73.67
2023-03-28T16:47:39.197Z,73.63
2023-03-28T16:50:46.785Z,73.61
2023-03-28T16:53:52.610Z,73.61
2023-03-28T16:57:01.789Z,73.63
2023-03-28T17:00:07.944Z,73.62
2023-03-28T17:03:13.738Z,73.55
2023-03-28T17:06:22.190Z,73.51
2023-03-28T17:09:29.187Z,73.48
2023-03-28T17:12:36.335Z,73.38
2023-03-28T17:15:43.830Z,73.43
2023-03-28T17:18:50.680Z,73.46
2023-03-28T17:21:57.804Z,73.49
2023-03-28T17:25:04.215Z,73.47
2023-03-28T17:28:11.043Z,73.55
2023-03-28T17:31:21.894Z,73.67
2023-03-28T17:34:28.921Z,73.65
2023-03-28T17:37:34.588Z,73.73
2023-03-28T17:40:40.028Z,73.80
2023-03-28T17:43:47.831Z,73.84
2023-03-28T17:46:54.456Z,73.86
2023-03-28T17:50:01.775Z,73.90
2023-03-28T17:53:08.327Z,73.92
2023-03-28T17:56:16.881Z,73.95
2023-03-28T17:59:24.855Z,73.96
2023-03-28T18:02:32.264Z,73.94
2023-03-28T18:05:40.459Z,74.03
2023-03-28T18:08:49.406Z,74.08
2023-03-28T18:11:56.845Z,74.16
2023-03-28T18:15:03.672Z,74.16
2023-03-28T18:18:10.413Z,74.23
2023-03-28T18:21:19.012Z,74.30
2023-03-28T18:24:27.604Z,74.36
2023-03-28T18:27:34.774Z,74.42
2023-03-28T18:30:42.361Z,74.42
2023-03-28T18:33:51.655Z,74.46
2023-03-28T18:37:01.998Z,74.52
2023-03-28T18:40:08.626Z,74.48
2023-03-28T18:43:17.659Z,74.48
2023-03-28T18:46:25.637Z,74.50
2023-03-28T18:49:32.884Z,74.49
2023-03-28T18:52:39.728Z,74.40
2023-03-28T18:55:47.616Z,74.38
2023-03-28T18:58:56.202Z,74.43
2023-03-28T19:02:02.166Z,74.50
2023-03-28T19:05:09.157Z,74.72
2023-03-28T19:08:16.554Z,74.70
2023-03-28T19:11:26.491Z,74.73
2023-03-28T19:14:35.737Z,74.72
2023-03-28T19:17:42.302Z,74.72
2023-03-28T19:20:48.479Z,74.66
2023-03-28T19:23:54.296Z,74.44
2023-03-28T19:27:05.181Z,74.26
2023-03-28T19:30:16.580Z,74.13
2023-03-28T19:33:26.650Z,74.10
2023-03-28T19:36:34.001Z,73.99
2023-03-28T19:39:41.338Z,74.03
2023-03-28T19:42:47.933Z,74.03
2023-03-28T19:45:55.291Z,74.02
2023-03-28T19:49:04.016Z,74.05
2023-03-28T19:52:11.220Z,74.10
2023-03-28T19:55:17.445Z,74.06
2023-03-28T19:58:23.065Z,74.03
2023-03-28T20:01:30.086Z,74.06
2023-03-28T20:04:38.766Z,74.15
2023-03-28T20:07:45.331Z,74.23
2023-03-28T20:10:57.609Z,74.33
2023-03-28T20:14:05.040Z,74.29
2023-03-28T20:17:11.927Z,74.39
2023-03-28T20:20:20.067Z,74.31
2023-03-28T20:23:29.420Z,74.33
2023-03-28T20:26:37.035Z,74.37
2023-03-28T20:29:42.798Z,74.39
2023-03-28T20:32:50.653Z,74.47
2023-03-28T20:35:56.535Z,74.56
2023-03-28T20:39:03.224Z,74.58
2023-03-28T20:42:10.279Z,74.66
2023-03-28T20:45:18.701Z,74.77
2023-03-28T20:48:25.796Z,74.76
2023-03-28T20:51:39.167Z,74.75
2023-03-28T20:54:48.188Z,74.72
2023-03-28T20:57:55.709Z,74.79
2023-03-28T21:01:03.921Z,74.78
2023-03-28T21:04:12.309Z,74.84
2023-03-28T21:07:21.717Z,74.88
2023-03-28T21:10:27.922Z,74.91
2023-03-28T21:13:34.735Z,74.90
2023-03-28T21:16:45.768Z,74.98
2023-03-28T21:19:51.037Z,74.97
2023-03-28T21:22:57.280Z,74.97
2023-03-28T21:26:05.392Z,74.95
2023-03-28T21:29:12.631Z,74.89
2023-03-28T21:32:18.886Z,74.81
2023-03-28T21:35:27.539Z,74.80
2023-03-28T21:38:33.738Z,74.82
2023-03-28T21:41:38.842Z,74.86
2023-03-28T21:44:44.641Z,74.86
2023-03-28T21:47:51.390Z,74.87
2023-03-28T21:51:07.207Z,74.84
2023-03-28T21:54:13.218Z,74.97
2023-03-28T21:57:21.396Z,75.02
2023-03-28T22:00:31.351Z,75.05
2023-03-28T22:03:42.798Z,75.05
2023-03-28T22:06:48.176Z,75.08
2023-03-28T22:09:56.772Z,75.06
2023-03-28T22:13:01.817Z,75.01
2023-03-28T22:16:07.857Z,74.96
2023-03-28T22:19:15.887Z,74.95
2023-03-28T22:22:23.681Z,74.94
2023-03-28T22:25:29.773Z,74.86
2023-03-28T22:28:35.872Z,74.85
2023-03-28T22:31:41.403Z,74.87
2023-03-28T22:34:47.917Z,75.00
2023-03-28T22:37:54.257Z,75.14
2023-03-28T22:41:00.315Z,75.22
2023-03-28T22:44:06.321Z,75.29
2023-03-28T22:47:12.482Z,75.09
2023-03-28T22:50:20.997Z,75.00
2023-03-28T22:53:29.137Z,74.98
2023-03-28T22:56:35.408Z,74.97
2023-03-28T22:59:43.492Z,75.00
2023-03-28T23:02:50.476Z,75.08
2023-03-28T23:05:58.389Z,75.10
2023-03-28T23:09:06.041Z,75.10
2023-03-28T23:12:13.684Z,75.10
2023-03-28T23:15:20.061Z,75.25
2023-03-28T23:18:27.754Z,75.29
2023-03-28T23:21:35.229Z,75.23
2023-03-28T23:24:45.212Z,75.12
2023-03-28T23:27:53.896Z,75.18
2023-03-28T23:31:00.344Z,75.09
2023-03-28T23:34:06.804Z,75.13
2023-03-28T23:37:12.531Z,75.11
2023-03-28T23:40:21.940Z,75.22
2023-03-28T23:43:40.833Z,75.20
2023-03-28T23:46:47.145Z,75.18
2023-03-28T23:49:53.878Z,75.28
2023-03-28T23:53:00.165Z,75.22
2023-03-28T23:56:05.499Z,75.18
2023-03-28T23:59:10.918Z,75.19
